Map

Track Data

SID SEASON NUMBER BASIN SUBBASIN NAME ISO_TIME NATURE LAT LON WMO_WIND WMO_PRES WMO_AGENCY TRACK_TYPE DIST2LAND LANDFALL IFLAG USA_AGENCY USA_ATCF_ID USA_LAT USA_LON USA_RECORD USA_STATUS USA_WIND USA_PRES USA_SSHS USA_R34_NE USA_R34_SE USA_R34_SW USA_R34_NW USA_R50_NE USA_R50_SE USA_R50_SW USA_R50_NW USA_R64_NE USA_R64_SE USA_R64_SW USA_R64_NW USA_POCI USA_ROCI USA_RMW USA_EYE TOKYO_LAT TOKYO_LON TOKYO_GRADE TOKYO_WIND TOKYO_PRES TOKYO_R50_DIR TOKYO_R50_LONG TOKYO_R50_SHORT TOKYO_R30_DIR TOKYO_R30_LONG TOKYO_R30_SHORT TOKYO_LAND CMA_LAT CMA_LON CMA_CAT CMA_WIND CMA_PRES HKO_LAT HKO_LON HKO_CAT HKO_WIND HKO_PRES NEWDELHI_LAT NEWDELHI_LON NEWDELHI_GRADE NEWDELHI_WIND NEWDELHI_PRES NEWDELHI_CI NEWDELHI_DP NEWDELHI_POCI REUNION_LAT REUNION_LON REUNION_TYPE REUNION_WIND REUNION_PRES REUNION_TNUM REUNION_CI REUNION_RMW REUNION_R34_NE REUNION_R34_SE REUNION_R34_SW REUNION_R34_NW REUNION_R50_NE REUNION_R50_SE REUNION_R50_SW REUNION_R50_NW REUNION_R64_NE REUNION_R64_SE REUNION_R64_SW REUNION_R64_NW BOM_LAT BOM_LON BOM_TYPE BOM_WIND BOM_PRES BOM_TNUM BOM_CI BOM_RMW BOM_R34_NE BOM_R34_SE BOM_R34_SW BOM_R34_NW BOM_R50_NE BOM_R50_SE BOM_R50_SW BOM_R50_NW BOM_R64_NE BOM_R64_SE BOM_R64_SW BOM_R64_NW BOM_ROCI BOM_POCI BOM_EYE BOM_POS_METHOD BOM_PRES_METHOD NADI_LAT NADI_LON NADI_CAT NADI_WIND NADI_PRES WELLINGTON_LAT WELLINGTON_LON WELLINGTON_WIND WELLINGTON_PRES DS824_LAT DS824_LON DS824_STAGE DS824_WIND DS824_PRES TD9636_LAT TD9636_LON TD9636_STAGE TD9636_WIND TD9636_PRES TD9635_LAT TD9635_LON TD9635_WIND TD9635_PRES TD9635_ROCI NEUMANN_LAT NEUMANN_LON NEUMANN_CLASS NEUMANN_WIND NEUMANN_PRES MLC_LAT MLC_LON MLC_CLASS MLC_WIND MLC_PRES USA_GUST BOM_GUST BOM_GUST_PER REUNION_GUST REUNION_GUST_PER USA_SEAHGT USA_SEARAD_NE USA_SEARAD_SE USA_SEARAD_SW USA_SEARAD_NW STORM_SPEED STORM_DIR
1970237N25168 1970 96 WP MM NOT_NAMED 1970-08-25 00:00:00 TS 25.0000 167.500 main 2790 2731 __O___________ -1 25.0000 167.500 0 1010 11 318
1970237N25168 1970 96 WP MM NOT_NAMED 1970-08-25 03:00:00 TS 25.4105 167.101 main 2731 2673 __P___________ -1 25.4105 167.101 0 1010 11 329
1970237N25168 1970 96 WP MM NOT_NAMED 1970-08-25 06:00:00 TS 25.9000 166.900 main 2673 2621 __O___________ -1 25.9000 166.900 0 1010 11 358
1970237N25168 1970 96 WP MM NOT_NAMED 1970-08-25 09:00:00 TS 26.5070 167.050 main 2621 2590 __P___________ -1 26.5070 167.050 0 1009 13 24
1970237N25168 1970 96 WP MM NOT_NAMED 1970-08-25 12:00:00 TS 27.1000 167.500 main 2590 2582 __O___________ -1 27.1000 167.500 0 1008 14 45
1970237N25168 1970 96 WP MM NOT_NAMED 1970-08-25 15:00:00 TS 27.5082 168.163 main 2590 2582 __P___________ -1 27.5082 168.163 0 1008 15 57
1970237N25168 1970 96 WP MM NOT_NAMED 1970-08-25 18:00:00 TS 27.9000 168.900 main 2590 2578 __O___________ -1 27.9000 168.900 0 1008 15 53
1970237N25168 1970 96 WP MM NOT_NAMED 1970-08-25 21:00:00 TS 28.4426 169.547 main 2578 2552 __P___________ -1 28.4426 169.547 0 1007 15 41
1970237N25168 1970 96 WP MM NOT_NAMED 1970-08-26 00:00:00 TS 29.0000 170.000 main 2552 2528 __O___________ -1 29.0000 170.000 0 19 1006 12 28
1970237N25168 1970 96 WP MM NOT_NAMED 1970-08-26 03:00:00 TS 29.4645 170.178 main 2519 2478 __P___________ -1 29.4645 170.178 0 19 1006 9 5
1970237N25168 1970 96 WP MM NOT_NAMED 1970-08-26 06:00:00 TS 29.9000 170.100 main 2478 2431 __O___________ -1 29.9000 170.100 0 19 1006 9 343
1970237N25168 1970 96 WP MM NOT_NAMED 1970-08-26 09:00:00 TS 30.3650 169.868 main 2423 2364 __P___________ -1 30.3650 169.868 0 24 1005 10 330
1970237N25168 1970 96 WP MM NOT_NAMED 1970-08-26 12:00:00 TS 30.8000 169.500 main 2364 2305 __O___________ -1 30.8000 169.500 1 29 1004 10 322
1970237N25168 1970 96 WP MM NOT_NAMED 1970-08-26 15:00:00 TS 31.1724 169.122 main 2305 2255 __P___________ -1 31.1724 169.122 1 29 1004 10 316
1970237N25168 1970 96 WP MM NOT_NAMED 1970-08-26 18:00:00 TS 31.5000 168.700 main 2255 2200 __O___________ -1 31.5000 168.700 1 29 1004 10 309
1970237N25168 1970 96 WP MM NOT_NAMED 1970-08-26 21:00:00 TS 31.7927 168.220 main 2200 2150 __P___________ -1 31.7927 168.220 1 29 1005 10 308
1970237N25168 1970 96 WP MM NOT_NAMED 1970-08-27 00:00:00 TS 32.1000 167.800 main 2150 2103 __O___________ -1 32.1000 167.800 1 29 1006 9 320
1970237N25168 1970 96 WP MM NOT_NAMED 1970-08-27 03:00:00 TS 32.4848 167.540 main 2098 2057 __P___________ -1 32.4848 167.540 1 29 1006 9 337
1970237N25168 1970 96 WP MM NOT_NAMED 1970-08-27 06:00:00 TS 32.9000 167.400 main 2057 2017 __O___________ -1 32.9000 167.400 1 29 1006 8 347
1970237N25168 1970 96 WP MM NOT_NAMED 1970-08-27 09:00:00 TS 33.2924 167.320 main 2017 1983 __P___________ -1 33.2924 167.320 1 26 1006 8 354
1970237N25168 1970 96 WP MM NOT_NAMED 1970-08-27 12:00:00 TS 33.7000 167.300 main 1983 1950 __O___________ -1 33.7000 167.300 1 23 1006 9 0
1970237N25168 1970 96 WP MM NOT_NAMED 1970-08-27 15:00:00 TS 34.1650 167.292 main 1942 1909 __P___________ -1 34.1650 167.292 1 23 1006 9 0
1970237N25168 1970 96 WP MM NOT_NAMED 1970-08-27 18:00:00 TS 34.6000 167.300 main 1909 1885 __O___________ -1 34.6000 167.300 1 23 1006 8 0
1970237N25168 1970 96 WP MM NOT_NAMED 1970-08-27 21:00:00 TS 34.9150 167.300 main 1885 1861 __P___________ -1 34.9150 167.300 1 23 1006 6 1
1970237N25168 1970 96 WP MM NOT_NAMED 1970-08-28 00:00:00 TS 35.2000 167.300 main 1861 1837 __O___________ -1 35.2000 167.300 1 23 1006 6 358
1970237N25168 1970 96 WP MM NOT_NAMED 1970-08-28 03:00:00 TS 35.5500 167.293 main 1829 1806 __P___________ -1 35.5500 167.293 1 23 1006 7 0
1970237N25168 1970 96 WP MM NOT_NAMED 1970-08-28 06:00:00 TS 35.9000 167.300 main 1806 1783 __O___________ -1 35.9000 167.300 1 23 1006 7 3
1970237N25168 1970 96 WP MM NOT_NAMED 1970-08-28 09:00:00 TS 36.2075 167.342 main 1783 1766 __P___________ -1 36.2075 167.342 1 21 1007 6 8
1970237N25168 1970 96 WP MM NOT_NAMED 1970-08-28 12:00:00 TS 36.5000 167.400 main 1766 1744 __O___________ -1 36.5000 167.400 0 19 1008 6 8
1970237N25168 1970 96 WP MM NOT_NAMED 1970-08-28 15:00:00 TS 36.8075 167.450 main 1751 1723 __P___________ -1 36.8075 167.450 0 19 1008 6 8
1970237N25168 1970 96 WP MM NOT_NAMED 1970-08-28 18:00:00 TS 37.1000 167.500 main 1723 1694 __O___________ -1 37.1000 167.500 0 19 1008 6 6
1970237N25168 1970 96 WP MM NOT_NAMED 1970-08-28 21:00:00 TS 37.3800 167.543 main 1694 1679 __P___________ -1 37.3800 167.543 0 19 1008 5 9
1970237N25168 1970 96 WP MM NOT_NAMED 1970-08-29 00:00:00 TS 37.6000 167.600 main 1679 1669 __O___________ -1 37.6000 167.600 0 19 1008 3 21
1970237N25168 1970 96 WP MM NOT_NAMED 1970-08-29 03:00:00 TS 37.7000 167.700 main 1673 1668 __P___________ -1 37.7000 167.700 0 1008 3 39
1970237N25168 1970 96 WP MM NOT_NAMED 1970-08-29 06:00:00 TS 37.8000 167.800 main 1668 1649 __O___________ -1 37.8000 167.800 0 1008 4 21
1970237N25168 1970 96 WP MM NOT_NAMED 1970-08-29 09:00:00 TS 38.0350 167.858 main 1653 1625 __P___________ -1 38.0350 167.858 0 1008 5 9
1970237N25168 1970 96 WP MM NOT_NAMED 1970-08-29 12:00:00 TS 38.3000 167.900 main 1625 1606 __O___________ -1 38.3000 167.900 0 1008 5 9
1970237N25168 1970 96 WP MM NOT_NAMED 1970-08-29 15:00:00 TS 38.5075 167.950 main 1611 1592 __P___________ -1 38.5075 167.950 0 1008 4 11
1970237N25168 1970 96 WP MM NOT_NAMED 1970-08-29 18:00:00 TS 38.7000 168.000 main 1592 1573 __O___________ -1 38.7000 168.000 0 1008 4 11
1970237N25168 1970 96 WP MM NOT_NAMED 1970-08-29 21:00:00 TS 38.9000 168.050 main 1578 1559 __P___________ -1 38.9000 168.050 0 1008 4 11
1970237N25168 1970 96 WP MM NOT_NAMED 1970-08-30 00:00:00 TS 39.1000 168.100 main 1559 1541 __O___________ -1 39.1000 168.100 0 1008 4 9
1970237N25168 1970 96 WP MM NOT_NAMED 1970-08-30 03:00:00 TS 39.2925 168.143 main 1541 1527 __P___________ -1 39.2925 168.143 0 1008 4 11
1970237N25168 1970 96 WP MM NOT_NAMED 1970-08-30 06:00:00 TS 39.5000 168.200 main 1527 1514 __O___________ -1 39.5000 168.200 0 1008 5 15
1970237N25168 1970 96 WP MM NOT_NAMED 1970-08-30 09:00:00 TS 39.7500 168.292 main 1505 1492 __P___________ -1 39.7500 168.292 0 1008 5 17
1970237N25168 1970 96 WP MM NOT_NAMED 1970-08-30 12:00:00 TS 40.0000 168.400 main 1492 1479 __O___________ -1 40.0000 168.400 0 1008 5 19
1970237N25168 1970 96 WP MM NOT_NAMED 1970-08-30 15:00:00 TS 40.2000 168.500 main 1479 1467 __P___________ -1 40.2000 168.500 0 1009 4 21
1970237N25168 1970 96 WP MM NOT_NAMED 1970-08-30 18:00:00 TS 40.4000 168.600 main 1467 1455 __O___________ -1 40.4000 168.600 0 1010 5 19
1970237N25168 1970 96 WP MM NOT_NAMED 1970-08-30 21:00:00 TS 40.6375 168.700 main 1455 1434 __P___________ -1 40.6375 168.700 0 1010 5 17
1970237N25168 1970 96 WP MM NOT_NAMED 1970-08-31 00:00:00 TS 40.9000 168.800 main 1434 __O___________ -1 40.9000 168.800 0 1010 5 17

Digital Typhoon Data and Search

About IBTrACS Database

This database is a web-friendly format of International Best Track Archive for Climate Stewardship (IBTrACS), a global best track data archive curated by NOAA dating back to 1842.

Updated: 2021-10-19